Time;durP1;ratioP1;P1;durP2;ratioP2;P2;SDS_P1;SDS_P2;PMS_P1;PMS_P2;Temp;Humidity;BMP_temperature;BMP_pressure;BME280_temperature;BME280_humidity;BME280_pressure;Samples;Min_cycle;Max_cycle;Signal;HPM_P1;HPM_P2
2023/09/12 00:00:44;;;;;;;21.83;11.63;;;;;;;19.15;100.00;100524.47;5043260;28;20427;-81
2023/09/12 00:03:12;;;;;;;21.15;11.20;;;;;;;19.13;100.00;100531.50;5028400;28;20445;-82
2023/09/12 00:05:52;;;;;;;18.98;10.90;;;;;;;19.14;100.00;100533.09;5042792;28;20434;-81
2023/09/12 00:08:21;;;;;;;19.50;11.00;;;;;;;18.98;100.00;100531.00;5045567;28;20422;-80
2023/09/12 00:11:02;;;;;;;19.02;10.73;;;;;;;19.03;100.00;100533.53;5028486;28;20431;-82
2023/09/12 00:13:35;;;;;;;18.67;11.60;;;;;;;19.03;100.00;100539.06;5028504;28;20489;-80
2023/09/12 00:16:05;;;;;;;22.25;12.30;;;;;;;19.06;100.00;100545.03;5024576;28;20429;-81
2023/09/12 00:18:38;;;;;;;23.13;12.68;;;;;;;19.03;100.00;100541.03;5045040;28;20430;-80
2023/09/12 00:21:08;;;;;;;22.90;13.17;;;;;;;19.07;100.00;100541.94;5029282;28;20442;-82
2023/09/12 00:23:41;;;;;;;23.38;14.90;;;;;;;19.08;100.00;100546.31;5043703;28;20426;-82
2023/09/12 00:26:09;;;;;;;23.27;14.85;;;;;;;19.08;100.00;100549.06;5026635;28;20418;-81
2023/09/12 00:28:43;;;;;;;26.65;15.13;;;;;;;19.12;100.00;100546.44;5029114;28;21009;-80
2023/09/12 00:31:16;;;;;;;25.88;15.48;;;;;;;19.00;100.00;100548.03;5030367;28;21202;-80
2023/09/12 00:33:49;;;;;;;26.50;16.02;;;;;;;19.00;100.00;100544.44;5028988;28;20911;-81
2023/09/12 00:36:24;;;;;;;23.97;14.73;;;;;;;18.98;100.00;100546.75;5030494;28;20453;-80
2023/09/12 00:38:52;;;;;;;21.30;14.70;;;;;;;18.93;100.00;100555.22;5026291;28;20423;-82
2023/09/12 00:41:25;;;;;;;24.15;15.70;;;;;;;18.93;100.00;100546.94;5030052;28;20425;-82
2023/09/12 00:43:53;;;;;;;23.42;15.18;;;;;;;18.84;100.00;100550.56;5030841;28;20427;-81
2023/09/12 00:46:28;;;;;;;24.58;15.00;;;;;;;18.84;100.00;100549.78;5029668;28;20422;-81
2023/09/12 00:49:04;;;;;;;25.15;15.32;;;;;;;18.72;100.00;100549.72;5028336;28;20434;-82
2023/09/12 00:51:38;;;;;;;24.92;14.57;;;;;;;18.70;100.00;100539.84;5044820;28;20503;-81
2023/09/12 00:54:07;;;;;;;22.70;14.80;;;;;;;18.55;100.00;100545.97;5024965;28;20444;-79
2023/09/12 00:56:41;;;;;;;25.20;15.27;;;;;;;18.56;100.00;100544.00;5030293;28;20824;-81
2023/09/12 00:59:16;;;;;;;24.23;15.73;;;;;;;18.53;100.00;100545.50;5028986;28;20427;-82
2023/09/12 01:01:52;;;;;;;25.55;15.05;;;;;;;18.45;100.00;100560.97;5026994;28;20419;-82
2023/09/12 01:04:21;;;;;;;23.15;15.38;;;;;;;18.53;100.00;100551.81;5028744;28;20423;-81
2023/09/12 01:06:50;;;;;;;21.83;14.70;;;;;;;18.43;100.00;100554.97;5028083;28;20415;-81
2023/09/12 01:09:19;;;;;;;25.25;15.55;;;;;;;18.43;100.00;100552.22;5028309;28;20922;-80
2023/09/12 01:11:52;;;;;;;23.25;14.63;;;;;;;18.45;100.00;100557.38;5026899;28;20427;-80
2023/09/12 01:14:25;;;;;;;25.65;16.05;;;;;;;18.57;100.00;100557.44;5029856;28;20427;-81
2023/09/12 01:16:59;;;;;;;24.52;16.02;;;;;;;18.58;100.00;100550.00;5026985;28;20426;-83
2023/09/12 01:19:32;;;;;;;24.33;15.52;;;;;;;18.51;100.00;100543.06;5029812;28;20426;-82
2023/09/12 01:22:22;;;;;;;21.92;15.45;;;;;;;18.46;100.00;100542.47;5045040;28;20423;-81
2023/09/12 01:25:08;;;;;;;25.40;15.80;;;;;;;18.42;100.00;100547.88;5025379;28;20427;-80
2023/09/12 01:27:42;;;;;;;23.53;16.20;;;;;;;18.36;100.00;100538.19;5041398;28;20431;-80
2023/09/12 01:30:18;;;;;;;26.17;16.23;;;;;;;18.32;100.00;100538.03;5025388;28;20434;-82
2023/09/12 01:32:47;;;;;;;25.95;15.57;;;;;;;18.30;100.00;100556.88;5027304;28;20486;-81
2023/09/12 01:35:20;;;;;;;26.58;17.17;;;;;;;18.27;100.00;100545.69;5027066;28;20419;-80
2023/09/12 01:37:48;;;;;;;31.27;17.73;;;;;;;18.24;100.00;100554.63;5031897;28;20427;-80
2023/09/12 01:40:39;;;;;;;29.70;18.70;;;;;;;18.25;100.00;100548.78;5031510;28;20422;-80
2023/09/12 01:43:09;;;;;;;28.48;19.52;;;;;;;18.23;100.00;100553.03;5048009;28;20419;-80
2023/09/12 01:45:38;;;;;;;33.78;20.75;;;;;;;18.23;100.00;100555.78;5029351;28;20434;-80
2023/09/12 01:48:12;;;;;;;34.83;21.73;;;;;;;18.31;100.00;100541.13;5032900;28;20430;-81
2023/09/12 01:50:41;;;;;;;33.75;20.50;;;;;;;18.24;100.00;100544.41;5046173;28;20423;-80
2023/09/12 01:53:09;;;;;;;36.00;21.40;;;;;;;18.19;100.00;100528.91;5028802;28;20425;-80
2023/09/12 01:55:38;;;;;;;35.55;22.67;;;;;;;18.20;100.00;100521.44;5032355;28;20407;-81
2023/09/12 01:58:13;;;;;;;42.83;24.80;;;;;;;18.15;100.00;100516.94;5031174;28;20418;-84
2023/09/12 02:00:42;;;;;;;44.47;25.30;;;;;;;18.16;100.00;100509.47;5028492;28;20422;-81
2023/09/12 02:03:15;;;;;;;39.60;24.98;;;;;;;18.14;100.00;100517.28;5032618;28;20430;-80
2023/09/12 02:05:44;;;;;;;37.72;24.40;;;;;;;18.08;100.00;100493.84;5030646;28;20891;-81
2023/09/12 02:08:12;;;;;;;38.38;25.83;;;;;;;18.12;100.00;100495.59;5029295;28;20408;-80
2023/09/12 02:10:45;;;;;;;37.88;25.65;;;;;;;18.01;100.00;100497.13;5029828;28;20915;-80
2023/09/12 02:13:15;;;;;;;33.65;24.00;;;;;;;18.06;100.00;100501.63;5028902;28;20454;-81
2023/09/12 02:15:48;;;;;;;40.08;24.90;;;;;;;18.07;100.00;100487.53;5045844;28;20430;-79
2023/09/12 02:18:16;;;;;;;43.17;24.83;;;;;;;18.07;100.00;100476.50;5032277;28;20415;-79
2023/09/12 02:20:46;;;;;;;35.92;23.90;;;;;;;18.07;100.00;100483.97;5028321;28;20411;-82
2023/09/12 02:23:14;;;;;;;38.88;24.80;;;;;;;18.04;100.00;100487.41;5030431;28;20454;-81
2023/09/12 02:25:47;;;;;;;42.65;25.65;;;;;;;18.02;100.00;100490.47;5044473;28;20430;-80
2023/09/12 02:28:16;;;;;;;39.10;25.83;;;;;;;18.03;100.00;100486.59;5029804;28;21101;-79
2023/09/12 02:30:50;;;;;;;44.38;26.88;;;;;;;18.02;100.00;100483.03;5031259;28;20764;-81
2023/09/12 02:33:23;;;;;;;39.47;25.23;;;;;;;18.04;100.00;100485.44;5029725;28;21102;-80
2023/09/12 02:35:56;;;;;;;39.88;24.52;;;;;;;18.00;100.00;100493.56;5029029;28;20423;-80
2023/09/12 02:38:24;;;;;;;38.58;25.10;;;;;;;18.01;100.00;100491.63;5046355;28;20424;-79
2023/09/12 02:40:57;;;;;;;35.80;23.92;;;;;;;17.96;100.00;100508.34;5026712;28;20439;-79
2023/09/12 02:43:32;;;;;;;38.35;24.80;;;;;;;17.91;100.00;100520.38;5047016;28;20430;-80
2023/09/12 02:46:05;;;;;;;38.08;26.35;;;;;;;17.95;100.00;100526.81;5031177;28;20427;-79
2023/09/12 02:48:33;;;;;;;42.47;26.17;;;;;;;17.94;100.00;100529.88;5030065;28;20431;-79
2023/09/12 02:51:07;;;;;;;40.47;26.08;;;;;;;17.89;100.00;100541.06;5046873;28;20419;-79
2023/09/12 02:53:40;;;;;;;42.90;27.50;;;;;;;17.88;100.00;100550.47;5031640;28;20410;-81
2023/09/12 02:56:13;;;;;;;44.43;26.60;;;;;;;17.87;100.00;100562.59;5029862;28;20772;-78
2023/09/12 02:58:48;;;;;;;41.05;26.88;;;;;;;17.89;100.00;100576.88;5024102;28;20423;-80
2023/09/12 03:01:22;;;;;;;40.90;25.98;;;;;;;17.89;100.00;100572.16;5028352;28;20423;-79
2023/09/12 03:03:50;;;;;;;44.58;28.27;;;;;;;17.89;100.00;100566.66;5025355;28;20419;-80
2023/09/12 03:06:18;;;;;;;44.05;28.25;;;;;;;17.91;100.00;100566.31;5029606;28;20939;-78
2023/09/12 03:08:51;;;;;;;46.22;28.95;;;;;;;17.87;100.00;100576.38;5026384;28;20431;-80
2023/09/12 03:11:27;;;;;;;49.30;30.30;;;;;;;17.74;100.00;100562.50;5024989;28;20434;-79
2023/09/12 03:13:56;;;;;;;46.50;30.10;;;;;;;17.78;100.00;100560.72;5029366;28;20434;-78
2023/09/12 03:16:30;;;;;;;46.78;29.15;;;;;;;17.85;100.00;100557.44;5030023;28;20419;-80
2023/09/12 03:19:01;;;;;;;53.30;30.05;;;;;;;17.84;100.00;100558.56;5028766;28;20415;-79
2023/09/12 03:21:29;;;;;;;51.45;30.48;;;;;;;17.81;100.00;100562.00;5029398;28;20450;-79
2023/09/12 03:24:02;;;;;;;50.40;30.05;;;;;;;17.80;100.00;100577.72;5026334;28;20504;-79
2023/09/12 03:26:36;;;;;;;54.13;31.17;;;;;;;17.81;100.00;100565.53;5043102;28;21149;-80
2023/09/12 03:29:11;;;;;;;55.25;31.80;;;;;;;17.80;100.00;100568.63;5029257;28;20455;-79
2023/09/12 03:31:39;;;;;;;52.60;31.75;;;;;;;17.89;100.00;100563.91;5046108;28;20422;-79
2023/09/12 03:34:07;;;;;;;55.78;31.88;;;;;;;17.94;100.00;100563.75;5029706;28;20434;-79
2023/09/12 03:36:40;;;;;;;50.58;31.00;;;;;;;17.91;100.00;100563.56;5027250;28;21901;-80
2023/09/12 03:39:14;;;;;;;56.20;32.87;;;;;;;17.90;100.00;100570.19;5026925;28;20417;-79
2023/09/12 03:41:47;;;;;;;52.47;31.15;;;;;;;17.83;100.00;100562.47;5045079;28;20438;-81
2023/09/12 03:44:22;;;;;;;52.80;32.07;;;;;;;17.85;100.00;100563.75;5029566;28;20921;-81
2023/09/12 03:46:55;;;;;;;56.78;33.03;;;;;;;17.82;100.00;100578.19;5029239;28;20781;-80
2023/09/12 03:49:29;;;;;;;57.90;32.83;;;;;;;17.85;100.00;100574.75;5029346;28;20906;-80
2023/09/12 03:52:02;;;;;;;54.38;31.55;;;;;;;17.87;100.00;100579.94;5025096;28;21127;-78
2023/09/12 03:54:31;;;;;;;59.30;33.20;;;;;;;17.87;100.00;100582.69;5029356;28;20422;-78
2023/09/12 03:57:04;;;;;;;58.63;32.90;;;;;;;17.89;100.00;100590.63;5026598;28;20768;-79
2023/09/12 03:59:34;;;;;;;61.92;33.72;;;;;;;17.89;100.00;100594.19;5025168;28;20894;-79
2023/09/12 04:02:07;;;;;;;65.10;34.20;;;;;;;17.89;100.00;100591.41;5028817;28;20430;-79
2023/09/12 04:04:40;;;;;;;63.85;34.45;;;;;;;17.94;100.00;100598.72;5028783;28;20423;-81
2023/09/12 04:07:13;;;;;;;61.45;34.40;;;;;;;17.98;100.00;100591.41;5028240;28;20472;-80
2023/09/12 04:09:47;;;;;;;70.63;37.08;;;;;;;18.14;100.00;100584.19;5030358;28;20415;-79
2023/09/12 04:12:20;;;;;;;72.78;37.65;;;;;;;17.96;100.00;100588.97;5028334;28;20442;-79
2023/09/12 04:14:54;;;;;;;73.63;37.88;;;;;;;18.01;100.00;100596.25;5029801;28;20887;-79
2023/09/12 04:17:23;;;;;;;68.90;35.58;;;;;;;17.98;100.00;100594.97;5028455;28;20779;-79
2023/09/12 04:19:56;;;;;;;72.25;37.28;;;;;;;17.96;100.00;100579.94;5027403;28;20891;-79
2023/09/12 04:22:25;;;;;;;70.28;35.83;;;;;;;18.22;100.00;100551.44;5027099;28;20430;-78
2023/09/12 04:24:53;;;;;;;68.90;35.33;;;;;;;18.04;100.00;100564.50;5028947;28;20811;-79
2023/09/12 04:27:26;;;;;;;66.47;35.47;;;;;;;17.98;100.00;100564.69;5027929;28;20438;-80
2023/09/12 04:30:01;;;;;;;65.47;34.47;;;;;;;17.99;100.00;100560.81;5028002;28;20771;-79
2023/09/12 04:32:29;;;;;;;68.93;34.37;;;;;;;17.97;100.00;100568.56;5028185;28;21151;-79
2023/09/12 04:34:58;;;;;;;61.20;32.97;;;;;;;17.97;100.00;100563.06;5025546;28;20431;-78
2023/09/12 04:37:31;;;;;;;66.97;33.85;;;;;;;18.04;100.00;100559.78;5028194;28;20903;-78
2023/09/12 04:39:59;;;;;;;62.65;33.88;;;;;;;17.95;100.00;100548.03;5029995;28;20430;-79
2023/09/12 04:42:32;;;;;;;64.03;32.97;;;;;;;18.09;100.00;100528.50;5027708;28;21192;-78
2023/09/12 04:45:07;;;;;;;60.85;31.88;;;;;;;17.98;100.00;100523.38;5028808;28;20435;-79
2023/09/12 04:47:41;;;;;;;58.00;32.17;;;;;;;17.93;100.00;100528.28;5043833;28;20493;-79
2023/09/12 04:50:11;;;;;;;56.28;31.63;;;;;;;17.98;100.00;100536.34;5028809;28;20755;-79
2023/09/12 04:52:39;;;;;;;60.83;32.20;;;;;;;18.00;100.00;100539.56;5027882;28;20435;-79
2023/09/12 04:55:08;;;;;;;57.38;31.00;;;;;;;17.97;100.00;100537.50;5025667;28;20890;-79
2023/09/12 04:57:36;;;;;;;54.80;30.17;;;;;;;17.97;100.00;100540.25;5028012;28;20431;-79
2023/09/12 05:00:08;;;;;;;53.63;30.65;;;;;;;17.98;100.00;100536.34;5026806;28;20421;-83
2023/09/12 05:02:41;;;;;;;55.58;30.50;;;;;;;17.93;100.00;100540.09;5041325;28;20446;-78
2023/09/12 05:05:09;;;;;;;55.40;29.50;;;;;;;17.94;100.00;100538.13;5025446;28;20446;-79
2023/09/12 05:07:37;;;;;;;55.00;29.92;;;;;;;17.95;100.00;100543.34;5026169;28;20415;-81
2023/09/12 05:10:06;;;;;;;48.38;28.60;;;;;;;17.93;100.00;100545.59;5044982;28;20441;-82
2023/09/12 05:12:36;;;;;;;50.90;29.92;;;;;;;17.92;100.00;100551.44;5029582;28;20469;-78
2023/09/12 05:15:11;;;;;;;54.00;31.10;;;;;;;17.92;100.00;100568.75;5046086;28;20415;-78
2023/09/12 05:17:45;;;;;;;62.80;31.30;;;;;;;17.93;100.00;100583.34;5030539;28;20915;-78
2023/09/12 05:20:18;;;;;;;65.90;32.60;;;;;;;17.93;100.00;100583.34;5027828;28;20427;-80
2023/09/12 05:22:51;;;;;;;60.35;31.60;;;;;;;17.94;100.00;100595.94;5029195;28;20431;-79
2023/09/12 05:25:26;;;;;;;61.85;32.25;;;;;;;17.91;100.00;100591.94;5030194;28;20424;-79
2023/09/12 05:27:59;;;;;;;62.47;32.60;;;;;;;17.88;100.00;100600.81;5028276;28;20431;-79
2023/09/12 05:30:34;;;;;;;64.47;32.53;;;;;;;17.86;100.00;100608.59;5029661;28;20914;-79
2023/09/12 05:33:07;;;;;;;64.93;33.25;;;;;;;17.82;100.00;100615.91;5044867;28;20919;-79
2023/09/12 05:35:44;;;;;;;60.15;32.05;;;;;;;17.85;100.00;100618.78;5027637;28;20419;-79
2023/09/12 05:38:17;;;;;;;58.30;30.40;;;;;;;17.92;100.00;100634.03;5030158;28;20449;-78
2023/09/12 05:40:50;;;;;;;60.50;30.85;;;;;;;17.86;100.00;100641.66;5028477;28;20434;-79
2023/09/12 05:43:24;;;;;;;61.43;30.60;;;;;;;17.85;100.00;100637.28;5029558;28;20415;-78
2023/09/12 05:45:59;;;;;;;58.63;30.77;;;;;;;17.85;100.00;100637.28;5031932;28;20415;-80
2023/09/12 05:48:32;;;;;;;63.05;32.72;;;;;;;17.83;100.00;100634.84;5030343;28;20434;-79
2023/09/12 05:51:00;;;;;;;57.63;30.98;;;;;;;17.84;100.00;100630.97;5030261;28;20427;-83
2023/09/12 05:53:28;;;;;;;57.30;31.25;;;;;;;17.83;100.00;100623.03;5027588;28;20426;-78
2023/09/12 05:56:01;;;;;;;61.67;31.23;;;;;;;17.83;100.00;100614.78;5027106;28;20425;-79
2023/09/12 05:58:30;;;;;;;64.57;32.28;;;;;;;17.81;100.00;100582.06;5023904;28;20423;-80
2023/09/12 06:01:06;;;;;;;60.88;30.35;;;;;;;17.82;100.00;100572.66;5027644;28;20443;-79
2023/09/12 06:03:34;;;;;;;61.88;32.38;;;;;;;17.87;100.00;100549.66;5028445;28;20434;-81
2023/09/12 06:06:08;;;;;;;60.30;30.13;;;;;;;17.85;100.00;100538.97;5028019;28;20431;-80
2023/09/12 06:08:36;;;;;;;53.75;29.85;;;;;;;17.78;100.00;100552.44;5026833;28;20431;-82
2023/09/12 06:11:10;;;;;;;58.33;30.70;;;;;;;17.71;100.00;100560.44;5044823;28;20423;-80
2023/09/12 06:13:43;;;;;;;61.15;31.13;;;;;;;17.73;100.00;100576.59;5025157;28;20411;-79
2023/09/12 06:16:12;;;;;;;64.00;31.50;;;;;;;17.75;100.00;100577.09;5021911;28;20434;-80
2023/09/12 06:18:45;;;;;;;55.33;28.80;;;;;;;17.77;100.00;100580.31;5024282;28;20427;-80
2023/09/12 06:21:14;;;;;;;53.90;29.50;;;;;;;17.72;100.00;100575.81;5023164;28;20426;-80
2023/09/12 06:23:47;;;;;;;51.28;27.73;;;;;;;17.72;100.00;100559.28;5024422;28;20435;-82
2023/09/12 06:26:21;;;;;;;61.33;31.95;;;;;;;17.69;100.00;100584.72;5021766;28;20439;-81
2023/09/12 06:28:54;;;;;;;59.00;30.85;;;;;;;17.71;100.00;100587.94;5018467;28;20427;-78
2023/09/12 06:31:23;;;;;;;57.90;28.83;;;;;;;17.71;100.00;100603.66;5026795;28;20426;-78
2023/09/12 06:33:51;;;;;;;58.22;29.92;;;;;;;17.73;100.00;100602.19;5025052;28;20435;-79
2023/09/12 06:36:19;;;;;;;57.42;29.67;;;;;;;17.75;100.00;100607.38;5021461;28;21100;-82
2023/09/12 06:38:53;;;;;;;60.58;30.85;;;;;;;17.67;100.00;100598.00;5023451;28;20427;-80
2023/09/12 06:41:28;;;;;;;55.53;29.30;;;;;;;17.67;100.00;100614.50;5021626;28;20440;-79
2023/09/12 06:43:57;;;;;;;55.08;29.38;;;;;;;17.72;100.00;100614.34;5025378;28;20435;-80
2023/09/12 06:46:28;;;;;;;54.63;29.30;;;;;;;17.70;100.00;100616.59;5022728;28;20459;-80
2023/09/12 06:49:01;;;;;;;57.63;30.15;;;;;;;17.75;100.00;100623.88;5024865;28;20438;-80
2023/09/12 06:51:34;;;;;;;53.92;28.20;;;;;;;17.80;100.00;100618.19;5040254;28;21131;-80
2023/09/12 06:54:07;;;;;;;52.35;28.33;;;;;;;17.81;100.00;100611.53;5027009;28;20423;-80
2023/09/12 06:56:37;;;;;;;52.40;28.77;;;;;;;17.84;100.00;100616.38;5026891;28;20431;-82
2023/09/12 06:59:13;;;;;;;51.85;28.52;;;;;;;17.91;100.00;100621.38;5023530;28;20438;-81
2023/09/12 07:01:43;;;;;;;56.80;29.40;;;;;;;17.95;100.00;100605.84;5026624;28;20427;-80
2023/09/12 07:04:11;;;;;;;56.13;29.17;;;;;;;17.99;100.00;100598.53;5026609;28;20431;-80
2023/09/12 07:06:39;;;;;;;52.33;28.08;;;;;;;18.01;100.00;100613.59;4976284;28;20439;-82
2023/09/12 07:09:14;;;;;;;52.40;28.08;;;;;;;18.08;100.00;100617.78;5012735;28;20426;-80
2023/09/12 07:11:42;;;;;;;58.87;30.30;;;;;;;18.07;100.00;100638.97;4995296;28;20438;-81
2023/09/12 07:14:10;;;;;;;56.42;28.55;;;;;;;18.10;100.00;100626.50;5013063;28;20911;-82
2023/09/12 07:16:38;;;;;;;55.97;29.25;;;;;;;18.11;100.00;100639.13;4996803;28;21953;-81
2023/09/12 07:19:17;;;;;;;60.60;31.35;;;;;;;18.17;100.00;100648.81;4983124;28;21051;-81
2023/09/12 07:21:47;;;;;;;60.15;30.17;;;;;;;18.18;100.00;100634.69;4989450;28;20435;-80
2023/09/12 07:24:21;;;;;;;57.17;30.40;;;;;;;18.24;100.00;100642.78;4999503;28;20438;-81
2023/09/12 07:26:50;;;;;;;58.45;30.27;;;;;;;18.26;100.00;100637.75;4995456;28;20435;-81
2023/09/12 07:29:23;;;;;;;63.60;32.25;;;;;;;18.32;100.00;100628.16;4995727;28;20427;-81
2023/09/12 07:31:56;;;;;;;61.80;30.53;;;;;;;18.32;100.00;100625.41;4991477;28;20423;-81
2023/09/12 07:34:31;;;;;;;66.67;31.90;;;;;;;18.32;100.00;100620.69;4990567;28;20442;-81
2023/09/12 07:37:04;;;;;;;66.47;32.60;;;;;;;18.38;100.00;100618.56;5004878;28;20427;-79
2023/09/12 07:39:37;;;;;;;68.60;32.92;;;;;;;18.35;100.00;100622.78;5002926;28;20435;-79
2023/09/12 07:42:06;;;;;;;63.88;30.77;;;;;;;18.30;100.00;100627.69;4993824;28;20427;-81
2023/09/12 07:44:34;;;;;;;69.50;33.05;;;;;;;18.32;100.00;100637.22;4997800;28;20430;-78
2023/09/12 07:47:03;;;;;;;71.85;33.90;;;;;;;18.29;100.00;100643.41;4992703;28;20796;-81
2023/09/12 07:49:37;;;;;;;68.40;33.33;;;;;;;18.27;100.00;100636.59;4988490;28;20446;-81
2023/09/12 07:52:06;;;;;;;69.88;34.67;;;;;;;18.28;100.00;100641.78;4990924;28;20453;-80
2023/09/12 07:54:40;;;;;;;73.95;33.95;;;;;;;18.33;100.00;100640.78;4989682;28;20438;-81
2023/09/12 07:57:13;;;;;;;67.78;32.90;;;;;;;18.31;100.00;100632.88;4993773;28;20593;-81
2023/09/12 07:59:41;;;;;;;68.22;33.08;;;;;;;18.32;100.00;100628.16;4991155;28;20454;-80
2023/09/12 08:02:15;;;;;;;71.30;34.33;;;;;;;18.36;100.00;100629.09;4993800;28;21047;-81
2023/09/12 08:04:50;;;;;;;72.53;33.23;;;;;;;18.38;100.00;100623.25;4994772;28;20466;-81
2023/09/12 08:07:18;;;;;;;70.97;33.30;;;;;;;18.40;100.00;100616.28;4975462;28;20450;-79
2023/09/12 08:09:53;;;;;;;70.63;32.75;;;;;;;18.39;100.00;100614.66;4994182;28;20426;-81
2023/09/12 08:12:23;;;;;;;74.15;34.95;;;;;;;18.38;100.00;100614.97;4994733;28;20454;-82
2023/09/12 08:14:51;;;;;;;74.50;34.83;;;;;;;18.42;100.00;100614.00;5006531;28;20438;-79
2023/09/12 08:17:25;;;;;;;80.03;36.00;;;;;;;18.47;100.00;100618.50;4992103;28;20434;-80
2023/09/12 08:19:54;;;;;;;83.82;36.78;;;;;;;18.48;100.00;100620.91;4991074;28;20435;-81
2023/09/12 08:22:28;;;;;;;83.35;37.13;;;;;;;18.49;100.00;100644.56;4995256;28;20431;-81
2023/09/12 08:24:56;;;;;;;99.67;39.17;;;;;;;18.40;100.00;100643.81;4995156;28;20446;-81
2023/09/12 08:27:29;;;;;;;96.10;38.30;;;;;;;18.52;100.00;100640.34;4999432;28;20442;-79
2023/09/12 08:29:57;;;;;;;107.80;39.55;;;;;;;18.50;100.00;100640.66;4995480;28;21796;-82
2023/09/12 08:32:31;;;;;;;102.22;38.85;;;;;;;18.52;100.00;100649.41;4990588;28;20427;-80
2023/09/12 08:35:01;;;;;;;106.53;40.13;;;;;;;18.56;100.00;100657.84;4994579;28;20441;-81
2023/09/12 08:37:29;;;;;;;109.63;40.10;;;;;;;18.52;100.00;100674.22;4996089;28;20443;-82
2023/09/12 08:40:07;;;;;;;107.28;38.95;;;;;;;18.51;100.00;100667.09;4995522;28;21294;-82
2023/09/12 08:42:43;;;;;;;109.40;40.15;;;;;;;18.47;100.00;100677.16;4994137;28;20941;-81
2023/09/12 08:45:18;;;;;;;110.32;40.28;;;;;;;18.47;100.00;100670.84;4998454;28;20431;-80
2023/09/12 08:47:51;;;;;;;119.07;40.72;;;;;;;18.49;100.00;100655.59;4995154;28;20445;-81
2023/09/12 08:50:32;;;;;;;110.10;40.13;;;;;;;18.55;100.00;100658.13;4994413;28;20502;-82
2023/09/12 08:53:01;;;;;;;119.00;41.58;;;;;;;18.57;100.00;100662.19;5003761;28;20453;-81
2023/09/12 08:55:36;;;;;;;112.07;41.13;;;;;;;18.62;100.00;100658.44;5002930;28;20442;-80
2023/09/12 08:58:11;;;;;;;106.53;40.03;;;;;;;18.73;100.00;100662.41;4995992;28;20474;-82
2023/09/12 09:00:39;;;;;;;107.67;40.43;;;;;;;18.72;100.00;100669.06;5017186;28;21482;-81
2023/09/12 09:03:14;;;;;;;107.50;40.03;;;;;;;18.79;100.00;100663.00;4997514;28;20445;-85
2023/09/12 09:05:44;;;;;;;96.90;38.07;;;;;;;18.81;100.00;100655.19;4971557;28;20438;-81
2023/09/12 09:08:19;;;;;;;95.35;38.20;;;;;;;18.94;100.00;100665.19;4999702;28;20434;-82
2023/09/12 09:10:56;;;;;;;87.07;37.63;;;;;;;18.95;100.00;100675.06;5021434;28;20427;-81
2023/09/12 09:13:29;;;;;;;84.18;36.15;;;;;;;19.01;100.00;100673.72;5001635;28;20431;-81
2023/09/12 09:16:11;;;;;;;82.82;36.65;;;;;;;18.97;100.00;100683.00;5004269;28;20422;-83
2023/09/12 09:18:53;;;;;;;83.37;36.73;;;;;;;19.03;100.00;100674.19;5003197;28;20430;-83
2023/09/12 09:21:25;;;;;;;81.13;35.22;;;;;;;19.15;100.00;100662.41;5004266;28;20423;-82
2023/09/12 09:24:00;;;;;;;78.22;35.22;;;;;;;19.27;100.00;100677.41;5001963;28;20473;-82
2023/09/12 09:26:44;;;;;;;78.20;36.93;;;;;;;19.32;100.00;100672.47;5010558;28;20427;-80
2023/09/12 09:29:19;;;;;;;81.30;36.33;;;;;;;19.42;100.00;100678.72;5005862;28;20426;-81
2023/09/12 09:31:53;;;;;;;80.53;36.30;;;;;;;19.57;100.00;100677.25;5005862;28;20502;-83
2023/09/12 09:34:29;;;;;;;77.55;36.10;;;;;;;19.64;100.00;100660.97;5000465;28;20442;-82
2023/09/12 09:37:04;;;;;;;75.03;35.17;;;;;;;19.64;100.00;100661.75;4999853;28;20435;-83
2023/09/12 09:39:37;;;;;;;69.53;34.13;;;;;;;19.73;100.00;100669.13;4998102;28;20430;-80
2023/09/12 09:42:11;;;;;;;70.43;34.67;;;;;;;19.80;100.00;100677.69;5002156;28;20434;-81
2023/09/12 09:44:45;;;;;;;67.07;33.58;;;;;;;19.79;100.00;100682.38;5002504;28;21235;-80
2023/09/12 09:47:19;;;;;;;65.65;33.22;;;;;;;19.83;100.00;100671.47;5000961;28;20431;-82
2023/09/12 09:49:52;;;;;;;67.05;33.03;;;;;;;19.93;100.00;100668.28;5017539;28;21245;-83
2023/09/12 09:52:30;;;;;;;62.67;31.83;;;;;;;19.95;100.00;100674.25;5002086;28;20963;-83
2023/09/12 09:55:05;;;;;;;59.33;31.42;;;;;;;20.04;100.00;100672.19;5001833;28;20489;-83
2023/09/12 09:57:37;;;;;;;56.55;30.98;;;;;;;19.95;100.00;100671.47;4998224;28;20938;-81
2023/09/12 10:00:14;;;;;;;61.05;32.22;;;;;;;19.99;100.00;100671.63;4995112;28;20431;-81
2023/09/12 10:02:50;;;;;;;50.80;29.10;;;;;;;19.93;100.00;100675.72;5000138;28;20427;-80
2023/09/12 10:05:23;;;;;;;54.53;30.38;;;;;;;20.01;100.00;100661.84;4971149;28;20484;-82
2023/09/12 10:08:00;;;;;;;58.00;32.55;;;;;;;19.95;100.00;100668.72;5002516;28;20434;-82
2023/09/12 10:10:30;;;;;;;58.03;32.00;;;;;;;19.94;100.00;100675.41;5002303;28;21243;-81
2023/09/12 10:13:05;;;;;;;55.15;31.13;;;;;;;19.85;100.00;100678.25;5021624;28;20431;-83
2023/09/12 10:15:39;;;;;;;53.85;30.77;;;;;;;19.91;100.00;100683.56;5006179;28;20419;-83
2023/09/12 10:18:18;;;;;;;52.35;29.77;;;;;;;20.04;100.00;100697.06;5005667;28;21348;-84
2023/09/12 10:20:55;;;;;;;55.00;30.73;;;;;;;20.02;100.00;100693.84;5005509;28;20473;-82
2023/09/12 10:23:31;;;;;;;58.00;30.42;;;;;;;20.01;100.00;100688.63;5005986;28;20438;-81
2023/09/12 10:26:05;;;;;;;56.92;31.58;;;;;;;19.98;100.00;100679.09;5008064;28;20431;-80
2023/09/12 10:28:34;;;;;;;55.25;30.98;;;;;;;20.09;100.00;100673.91;5019089;28;20927;-81
2023/09/12 10:31:08;;;;;;;54.25;30.65;;;;;;;20.02;100.00;100677.25;4999655;28;20450;-82
2023/09/12 10:33:42;;;;;;;52.58;30.13;;;;;;;20.04;100.00;100677.72;5003989;28;20457;-84
2023/09/12 10:36:19;;;;;;;61.07;30.17;;;;;;;19.93;100.00;100690.38;5006167;28;20434;-84
2023/09/12 10:38:55;;;;;;;53.17;30.02;;;;;;;19.97;100.00;100671.13;5004296;28;20501;-84
2023/09/12 10:41:29;;;;;;;57.50;29.60;;;;;;;20.10;100.00;100667.25;5003459;28;20423;-83
2023/09/12 10:43:59;;;;;;;53.70;29.40;;;;;;;20.00;100.00;100673.22;5007001;28;20481;-83
2023/09/12 10:46:28;;;;;;;47.60;27.42;;;;;;;20.02;100.00;100674.50;5006321;28;20427;-84
2023/09/12 10:48:56;;;;;;;48.80;28.63;;;;;;;20.04;100.00;100676.91;5009712;28;20407;-82
2023/09/12 10:51:29;;;;;;;46.67;27.40;;;;;;;19.96;100.00;100673.09;5006253;28;20426;-84
2023/09/12 10:53:59;;;;;;;47.38;27.52;;;;;;;19.83;100.00;100671.47;5006444;28;20418;-84
2023/09/12 10:56:32;;;;;;;47.25;27.75;;;;;;;19.90;100.00;100666.22;5004677;28;20434;-81
2023/09/12 10:59:15;;;;;;;47.28;27.60;;;;;;;19.83;100.00;100677.00;5005314;28;20473;-82
2023/09/12 11:01:48;;;;;;;48.20;28.20;;;;;;;19.78;100.00;100675.25;5001744;28;20435;-83
2023/09/12 11:04:34;;;;;;;50.47;28.63;;;;;;;19.80;100.00;100674.91;5003652;28;20461;-80
2023/09/12 11:07:33;;;;;;;47.58;27.58;;;;;;;19.83;100.00;100677.81;4984075;28;20435;-82
2023/09/12 11:10:24;;;;;;;52.22;29.98;;;;;;;19.76;100.00;100683.06;5007157;28;20461;-82
2023/09/12 11:12:53;;;;;;;52.28;29.55;;;;;;;19.76;100.00;100685.84;4997800;28;20450;-81
2023/09/12 11:15:31;;;;;;;45.92;27.70;;;;;;;19.75;100.00;100686.16;5002308;28;22065;-82
2023/09/12 11:18:05;;;;;;;47.03;27.43;;;;;;;19.69;100.00;100693.84;5003837;28;20858;-82
2023/09/12 11:20:57;;;;;;;47.08;27.40;;;;;;;19.64;100.00;100694.88;4997704;28;21041;-83
2023/09/12 11:23:27;;;;;;;49.80;28.27;;;;;;;19.59;100.00;100695.09;4994746;28;20462;-83
2023/09/12 11:26:06;;;;;;;47.03;27.27;;;;;;;19.58;100.00;100701.75;4998981;28;20626;-82